Time;durP1;ratioP1;P1;durP2;ratioP2;P2;SDS_P1;SDS_P2;PMS_P1;PMS_P2;Temp;Humidity;BMP_temperature;BMP_pressure;BME280_temperature;BME280_humidity;BME280_pressure;Samples;Min_cycle;Max_cycle;Signal;HPM_P1;HPM_P2
2022/12/29 00:00:08;;;;;;;1.10;0.50;;;9.20;99.90;;;;;;5077013;28;20418;-59
2022/12/29 00:02:35;;;;;;;0.90;0.40;;;9.20;99.90;;;;;;5076053;28;20455;-59
2022/12/29 00:05:03;;;;;;;0.90;0.47;;;9.20;99.90;;;;;;5077912;28;20466;-59
2022/12/29 00:07:32;;;;;;;1.52;0.50;;;9.20;99.90;;;;;;5077491;28;20514;-59
2022/12/29 00:09:59;;;;;;;0.80;0.47;;;9.20;99.90;;;;;;5075266;28;20435;-60
2022/12/29 00:15:36;;;;;;;0.85;0.45;;;9.30;99.90;;;;;;5075874;28;20419;-59
2022/12/29 00:18:01;;;;;;;0.80;0.40;;;9.30;99.90;;;;;;5074236;28;20690;-59
2022/12/29 00:37:01;;;;;;;0.70;0.40;;;9.60;99.90;;;;;;5075507;28;20454;-59
2022/12/29 00:44:59;;;;;;;0.98;0.40;;;9.70;99.90;;;;;;5075231;28;20415;-59
2022/12/29 00:47:27;;;;;;;0.75;0.40;;;9.80;99.90;;;;;;5075227;28;20509;-59
2022/12/29 00:49:53;;;;;;;1.13;0.40;;;9.80;99.90;;;;;;5076104;28;22044;-59
2022/12/29 00:52:20;;;;;;;0.70;0.40;;;9.80;99.90;;;;;;5075246;28;20419;-59
2022/12/29 00:54:49;;;;;;;0.90;0.40;;;9.90;99.90;;;;;;5075970;28;20785;-59
2022/12/29 00:57:16;;;;;;;0.60;0.30;;;9.90;99.90;;;;;;5075788;28;20506;-60
2022/12/29 00:59:45;;;;;;;0.77;0.40;;;9.80;99.90;;;;;;5076734;28;20792;-60
2022/12/29 01:02:12;;;;;;;0.95;0.40;;;9.80;99.90;;;;;;5075941;28;20522;-60
2022/12/29 01:04:39;;;;;;;1.58;0.40;;;9.80;99.90;;;;;;5076359;28;20451;-60
2022/12/29 01:07:06;;;;;;;0.98;0.40;;;9.80;99.90;;;;;;5075849;28;20443;-59
2022/12/29 01:12:40;;;;;;;1.00;0.40;;;9.90;99.90;;;;;;5076111;28;20399;-59
2022/12/29 01:15:09;;;;;;;0.70;0.40;;;9.90;99.90;;;;;;5076121;28;20707;-60
2022/12/29 01:17:36;;;;;;;0.60;0.40;;;10.00;99.90;;;;;;5074792;28;20575;-60
2022/12/29 01:20:03;;;;;;;0.70;0.40;;;9.90;99.90;;;;;;5074393;28;20424;-59
2022/12/29 01:22:31;;;;;;;0.60;0.30;;;9.90;99.90;;;;;;5076205;28;20423;-59
2022/12/29 01:24:58;;;;;;;0.68;0.40;;;9.90;99.90;;;;;;5075333;28;20427;-59
2022/12/29 01:27:27;;;;;;;0.90;0.30;;;9.90;99.90;;;;;;5074824;28;20426;-59
2022/12/29 01:29:54;;;;;;;0.80;0.40;;;9.90;99.90;;;;;;5075458;28;22353;-60
2022/12/29 01:32:21;;;;;;;1.10;0.40;;;9.90;99.90;;;;;;5075914;28;20424;-59
2022/12/29 01:34:48;;;;;;;0.85;0.40;;;9.90;99.90;;;;;;5075405;28;20415;-59
2022/12/29 01:37:15;;;;;;;0.90;0.30;;;10.00;99.90;;;;;;5075346;28;20416;-59
2022/12/29 01:39:43;;;;;;;0.70;0.40;;;9.90;99.90;;;;;;5074860;28;20869;-59
2022/12/29 01:42:17;;;;;;;0.60;0.30;;;9.90;99.90;;;;;;5075835;28;20734;-59
2022/12/29 01:44:56;;;;;;;0.63;0.40;;;9.80;99.90;;;;;;5075274;28;20422;-60
2022/12/29 01:47:32;;;;;;;2.30;0.40;;;9.80;99.90;;;;;;5075225;28;20870;-59
2022/12/29 01:50:02;;;;;;;0.60;0.40;;;9.90;99.90;;;;;;5074928;28;20446;-60
2022/12/29 01:52:33;;;;;;;0.90;0.40;;;9.90;99.90;;;;;;5076462;28;20439;-59
2022/12/29 01:55:02;;;;;;;0.70;0.40;;;9.90;99.90;;;;;;5075145;28;20522;-59
2022/12/29 01:57:33;;;;;;;0.85;0.40;;;9.90;99.90;;;;;;5074674;28;20523;-59
2022/12/29 02:00:07;;;;;;;0.60;0.40;;;9.80;99.90;;;;;;5075055;28;20459;-59
2022/12/29 02:02:35;;;;;;;0.70;0.47;;;9.70;99.90;;;;;;5074146;28;20719;-59
2022/12/29 02:05:06;;;;;;;0.80;0.40;;;9.70;99.90;;;;;;5074997;28;20514;-59
2022/12/29 02:07:34;;;;;;;1.30;0.40;;;9.70;99.90;;;;;;5075349;28;20451;-59
2022/12/29 02:17:02;;;;;;;1.38;0.40;;;9.50;99.90;;;;;;5091166;28;20416;-59
2022/12/29 02:20:00;;;;;;;0.60;0.40;;;9.50;99.90;;;;;;5094283;28;20775;-59
2022/12/29 02:22:35;;;;;;;0.60;0.40;;;9.40;99.90;;;;;;5095596;28;20418;-61
2022/12/29 02:25:35;;;;;;;1.00;0.50;;;9.40;99.90;;;;;;5095427;28;20464;-59
2022/12/29 02:28:36;;;;;;;0.70;0.40;;;9.40;99.90;;;;;;5087921;28;20790;-59
2022/12/29 02:31:12;;;;;;;1.00;0.40;;;9.30;99.90;;;;;;5094543;28;20620;-59
2022/12/29 02:33:53;;;;;;;1.50;0.40;;;9.20;99.90;;;;;;5095074;28;20485;-59
2022/12/29 02:36:31;;;;;;;0.60;0.40;;;9.10;99.90;;;;;;5095614;28;20533;-59
2022/12/29 02:39:11;;;;;;;1.10;0.40;;;9.20;99.90;;;;;;5094503;28;20453;-59
2022/12/29 02:41:50;;;;;;;0.88;0.40;;;9.20;99.90;;;;;;5095280;28;20901;-59
2022/12/29 02:44:25;;;;;;;0.70;0.40;;;9.20;99.90;;;;;;5095901;28;20820;-59
2022/12/29 02:46:59;;;;;;;0.70;0.40;;;9.20;99.90;;;;;;5094317;28;20503;-59
2022/12/29 02:49:35;;;;;;;0.70;0.30;;;9.20;99.90;;;;;;5095381;28;20440;-59
2022/12/29 02:52:07;;;;;;;0.70;0.40;;;9.20;99.90;;;;;;5094790;28;20468;-59
2022/12/29 02:54:42;;;;;;;1.10;0.40;;;9.10;99.90;;;;;;5095292;28;20449;-59
2022/12/29 02:57:13;;;;;;;0.50;0.30;;;9.00;99.90;;;;;;5094731;28;20413;-59
2022/12/29 02:59:41;;;;;;;0.88;0.40;;;9.00;99.90;;;;;;5094760;28;20460;-59
2022/12/29 03:02:44;;;;;;;1.05;0.40;;;9.00;99.90;;;;;;5095015;28;20452;-60
2022/12/29 03:05:31;;;;;;;0.60;0.40;;;9.00;99.90;;;;;;5091919;28;20497;-60
2022/12/29 03:08:06;;;;;;;0.80;0.40;;;9.00;99.90;;;;;;5093343;28;20465;-59
2022/12/29 03:10:42;;;;;;;1.20;0.40;;;9.00;99.90;;;;;;5093445;28;20521;-58
2022/12/29 03:16:08;;;;;;;0.70;0.40;;;8.90;99.90;;;;;;5093043;28;20421;-58
2022/12/29 03:18:43;;;;;;;1.80;0.40;;;8.90;99.90;;;;;;5092985;28;20500;-58
2022/12/29 03:21:17;;;;;;;1.20;0.40;;;9.00;99.90;;;;;;5094441;28;20422;-58
2022/12/29 03:23:48;;;;;;;0.80;0.30;;;9.00;99.90;;;;;;5094271;28;20821;-58
2022/12/29 03:26:18;;;;;;;0.80;0.40;;;8.90;99.90;;;;;;5095049;28;20505;-58
2022/12/29 03:28:50;;;;;;;0.70;0.30;;;8.90;99.90;;;;;;5095027;28;20517;-58
2022/12/29 03:31:19;;;;;;;1.20;0.50;;;9.00;99.90;;;;;;5097797;28;20473;-58
2022/12/29 03:33:48;;;;;;;0.60;0.30;;;9.00;99.90;;;;;;5098332;28;20421;-58
2022/12/29 03:36:24;;;;;;;0.70;0.40;;;9.00;99.90;;;;;;5098796;28;20532;-58
2022/12/29 03:38:59;;;;;;;1.10;0.40;;;9.00;99.90;;;;;;5097332;28;20505;-58
2022/12/29 03:41:31;;;;;;;0.50;0.30;;;9.00;99.90;;;;;;5098477;28;20457;-59
2022/12/29 03:43:58;;;;;;;0.60;0.35;;;9.10;99.90;;;;;;5097895;28;20910;-58
2022/12/29 03:46:25;;;;;;;0.55;0.30;;;9.20;99.90;;;;;;5098724;28;20426;-59
2022/12/29 03:48:53;;;;;;;0.50;0.30;;;9.40;99.90;;;;;;5096665;28;20500;-59
2022/12/29 03:51:21;;;;;;;0.60;0.30;;;9.70;99.90;;;;;;5097174;28;20445;-58
2022/12/29 03:53:49;;;;;;;0.52;0.30;;;10.00;99.90;;;;;;5095949;28;20707;-58
2022/12/29 03:56:16;;;;;;;0.50;0.30;;;10.20;99.90;;;;;;5096332;28;20787;-58
2022/12/29 03:58:43;;;;;;;0.45;0.22;;;10.30;99.90;;;;;;5095198;28;20742;-58
2022/12/29 04:01:10;;;;;;;0.40;0.30;;;10.60;99.90;;;;;;5096178;28;20796;-58
2022/12/29 04:03:38;;;;;;;0.40;0.20;;;10.80;99.90;;;;;;5096116;28;20509;-59
2022/12/29 04:06:05;;;;;;;1.60;0.60;;;11.00;99.90;;;;;;5095064;28;20428;-59
2022/12/29 04:08:34;;;;;;;0.50;0.30;;;11.00;99.90;;;;;;5095259;28;20418;-59
2022/12/29 04:11:01;;;;;;;0.60;0.40;;;11.00;99.90;;;;;;5095989;28;20599;-58
2022/12/29 04:13:28;;;;;;;0.70;0.30;;;11.00;99.90;;;;;;5095238;28;20512;-58
2022/12/29 04:15:56;;;;;;;2.20;1.10;;;10.80;99.90;;;;;;5096701;28;20860;-59
2022/12/29 04:18:23;;;;;;;0.75;0.40;;;10.80;99.90;;;;;;5097748;28;20508;-58
2022/12/29 04:21:03;;;;;;;0.57;0.32;;;10.70;99.90;;;;;;5097236;28;20500;-58
2022/12/29 04:23:32;;;;;;;1.13;0.47;;;10.60;99.90;;;;;;5097610;28;20413;-58
2022/12/29 04:26:01;;;;;;;0.68;0.30;;;10.50;99.90;;;;;;5097772;28;20425;-59
2022/12/29 04:28:28;;;;;;;0.60;0.30;;;10.50;99.90;;;;;;5097332;28;20460;-59
2022/12/29 04:30:55;;;;;;;0.60;0.30;;;10.50;99.90;;;;;;5097271;28;20524;-59
2022/12/29 04:33:24;;;;;;;0.50;0.30;;;10.50;99.90;;;;;;5097460;28;20853;-59
2022/12/29 04:35:52;;;;;;;0.57;0.30;;;10.60;99.90;;;;;;5097475;28;20425;-60
2022/12/29 04:38:20;;;;;;;3.00;0.30;;;10.60;99.90;;;;;;5097221;28;20421;-59
2022/12/29 04:40:48;;;;;;;1.50;0.30;;;10.60;99.90;;;;;;5096643;28;20483;-59
2022/12/29 04:43:18;;;;;;;0.63;0.30;;;10.60;99.90;;;;;;5097654;28;20422;-59
2022/12/29 04:45:46;;;;;;;1.15;0.40;;;10.70;99.90;;;;;;5096813;28;20434;-59
2022/12/29 04:48:13;;;;;;;1.30;0.30;;;10.60;99.90;;;;;;5097523;28;20442;-58
2022/12/29 04:50:41;;;;;;;0.60;0.30;;;10.50;99.90;;;;;;5096797;28;20462;-59
2022/12/29 04:53:09;;;;;;;1.00;0.30;;;10.60;99.90;;;;;;5097474;28;20495;-59
2022/12/29 04:55:36;;;;;;;1.10;0.30;;;10.80;99.90;;;;;;5096383;28;20823;-59
2022/12/29 04:58:03;;;;;;;0.80;0.40;;;11.00;99.90;;;;;;5096728;28;20884;-58
2022/12/29 05:00:32;;;;;;;0.50;0.30;;;11.10;99.90;;;;;;5097207;28;20733;-58
2022/12/29 05:02:59;;;;;;;0.50;0.30;;;11.20;99.90;;;;;;5096197;28;20426;-59
2022/12/29 05:05:27;;;;;;;0.60;0.30;;;11.30;99.90;;;;;;5096199;28;20770;-59
2022/12/29 05:07:54;;;;;;;0.50;0.30;;;11.30;99.90;;;;;;5097039;28;20925;-59
2022/12/29 05:10:21;;;;;;;0.80;0.30;;;11.20;99.90;;;;;;5096406;28;20852;-59
2022/12/29 05:12:48;;;;;;;0.60;0.30;;;11.30;99.90;;;;;;5096571;28;20516;-59
2022/12/29 05:15:16;;;;;;;0.60;0.30;;;11.30;99.90;;;;;;5095438;28;20908;-58
2022/12/29 05:17:44;;;;;;;0.50;0.30;;;11.20;99.90;;;;;;5096185;28;20464;-59
2022/12/29 05:20:12;;;;;;;0.50;0.30;;;11.30;99.90;;;;;;5096445;28;20806;-55
2022/12/29 05:22:39;;;;;;;0.52;0.30;;;11.40;99.90;;;;;;5096290;28;20472;-59
2022/12/29 05:25:07;;;;;;;0.60;0.30;;;11.40;99.90;;;;;;5096076;28;20426;-58
2022/12/29 05:27:34;;;;;;;0.65;0.30;;;11.30;99.90;;;;;;5095939;28;20770;-58
2022/12/29 05:30:01;;;;;;;1.03;0.30;;;11.30;99.90;;;;;;5096649;28;20512;-58
2022/12/29 05:32:29;;;;;;;0.60;0.40;;;11.30;99.90;;;;;;5095723;28;20516;-58
2022/12/29 05:34:57;;;;;;;0.60;0.30;;;11.30;99.90;;;;;;5096072;28;20476;-58
2022/12/29 05:37:24;;;;;;;1.50;0.30;;;11.30;99.90;;;;;;5094855;28;20501;-58
2022/12/29 05:39:52;;;;;;;1.40;0.30;;;11.20;99.90;;;;;;5095730;28;20504;-58
2022/12/29 05:42:19;;;;;;;0.80;0.40;;;11.10;99.90;;;;;;5096141;28;20497;-57
2022/12/29 05:44:46;;;;;;;0.80;0.40;;;11.10;99.90;;;;;;5094549;28;20446;-58
2022/12/29 05:47:13;;;;;;;0.70;0.40;;;11.10;99.90;;;;;;5095321;28;20517;-58
2022/12/29 05:49:41;;;;;;;1.20;0.40;;;11.00;99.90;;;;;;5095616;28;20546;-58
2022/12/29 05:52:09;;;;;;;0.70;0.40;;;11.00;99.90;;;;;;5095499;28;20935;-58
2022/12/29 05:54:37;;;;;;;0.60;0.30;;;11.10;99.90;;;;;;5094486;28;20885;-58
2022/12/29 05:57:04;;;;;;;0.60;0.30;;;11.20;99.90;;;;;;5093736;28;20501;-58
2022/12/29 05:59:31;;;;;;;0.50;0.30;;;11.20;99.90;;;;;;5095332;28;20414;-58
2022/12/29 06:01:59;;;;;;;0.70;0.30;;;11.10;99.90;;;;;;5093621;28;20852;-58
2022/12/29 06:04:26;;;;;;;1.50;0.30;;;11.10;99.90;;;;;;5093247;28;20502;-59
2022/12/29 06:06:53;;;;;;;1.50;0.40;;;11.10;99.90;;;;;;5093977;28;20498;-59
2022/12/29 06:09:22;;;;;;;0.50;0.30;;;11.10;99.90;;;;;;5093030;28;20530;-58
2022/12/29 06:11:49;;;;;;;0.70;0.40;;;11.10;99.90;;;;;;5092820;28;20756;-58
2022/12/29 06:14:16;;;;;;;0.63;0.30;;;11.10;99.90;;;;;;5092289;28;20509;-58
2022/12/29 06:16:43;;;;;;;1.30;0.40;;;11.10;99.90;;;;;;5094799;28;20445;-54
2022/12/29 06:19:11;;;;;;;1.30;0.50;;;11.10;99.90;;;;;;5094864;28;20422;-54
2022/12/29 06:21:38;;;;;;;0.50;0.30;;;11.10;99.90;;;;;;5094323;28;20485;-51
2022/12/29 06:24:06;;;;;;;1.50;0.80;;;11.00;99.90;;;;;;5093524;28;20413;-55
2022/12/29 06:26:35;;;;;;;0.70;0.40;;;11.00;99.90;;;;;;5094770;28;20438;-54
2022/12/29 06:29:02;;;;;;;0.90;0.30;;;10.90;99.90;;;;;;5094492;28;20414;-54
2022/12/29 06:31:29;;;;;;;1.00;0.40;;;10.90;99.90;;;;;;5092771;28;20440;-53
2022/12/29 06:33:57;;;;;;;0.82;0.30;;;11.00;99.90;;;;;;5090135;28;20808;-56
2022/12/29 06:36:24;;;;;;;0.80;0.40;;;11.20;99.90;;;;;;5092488;28;20528;-54
2022/12/29 06:38:52;;;;;;;0.60;0.30;;;11.20;99.90;;;;;;5093091;28;20783;-55
2022/12/29 06:41:19;;;;;;;0.60;0.30;;;11.20;99.90;;;;;;5093533;28;20822;-55
2022/12/29 06:43:48;;;;;;;1.20;0.30;;;11.10;99.90;;;;;;5094898;28;20449;-55
2022/12/29 06:46:15;;;;;;;0.77;0.30;;;11.10;99.90;;;;;;5092952;28;20522;-55
2022/12/29 06:48:43;;;;;;;0.60;0.40;;;11.10;99.90;;;;;;5093130;28;20453;-53
2022/12/29 06:51:10;;;;;;;0.60;0.30;;;11.00;99.90;;;;;;5093037;28;20954;-54
2022/12/29 06:53:37;;;;;;;0.60;0.30;;;11.00;99.90;;;;;;5091987;28;20445;-55
2022/12/29 06:56:05;;;;;;;0.70;0.40;;;10.90;99.90;;;;;;5091951;28;20520;-54
2022/12/29 06:58:32;;;;;;;0.50;0.30;;;10.90;99.90;;;;;;5093027;28;20513;-56
2022/12/29 07:01:01;;;;;;;0.50;0.30;;;10.80;99.90;;;;;;5094249;28;20508;-55
2022/12/29 07:03:28;;;;;;;0.67;0.30;;;10.80;99.90;;;;;;5091466;28;20422;-54
2022/12/29 07:05:57;;;;;;;0.70;0.40;;;10.80;99.90;;;;;;5091651;28;20762;-56
2022/12/29 07:08:25;;;;;;;0.52;0.30;;;10.70;99.90;;;;;;5092817;28;20813;-57
2022/12/29 07:10:52;;;;;;;0.55;0.30;;;10.70;99.90;;;;;;5092528;28;20814;-59
2022/12/29 07:13:19;;;;;;;0.60;0.30;;;10.60;99.90;;;;;;5087456;28;20517;-57
2022/12/29 07:15:47;;;;;;;1.60;0.30;;;10.60;99.90;;;;;;5088185;28;20425;-57
2022/12/29 07:18:15;;;;;;;0.77;0.40;;;10.60;99.90;;;;;;5090242;28;20772;-57
2022/12/29 07:20:42;;;;;;;1.10;0.50;;;10.50;99.90;;;;;;5091626;28;20418;-58
2022/12/29 07:23:10;;;;;;;1.30;0.40;;;10.50;99.90;;;;;;5088865;28;20409;-58
2022/12/29 07:25:37;;;;;;;0.70;0.30;;;10.50;99.90;;;;;;5088641;28;20559;-58
2022/12/29 07:28:04;;;;;;;1.40;0.40;;;10.40;99.90;;;;;;5088829;28;20501;-58
2022/12/29 07:30:32;;;;;;;0.70;0.30;;;10.30;99.90;;;;;;5090428;28;20611;-57
2022/12/29 07:32:59;;;;;;;1.90;0.40;;;10.30;99.90;;;;;;5091726;28;20504;-60
2022/12/29 07:35:28;;;;;;;1.00;0.40;;;10.30;99.90;;;;;;5091095;28;20521;-58
2022/12/29 07:37:55;;;;;;;0.60;0.40;;;10.30;99.90;;;;;;5091275;28;20446;-58
2022/12/29 07:40:22;;;;;;;0.60;0.40;;;10.30;99.90;;;;;;5090975;28;20864;-58
2022/12/29 07:42:49;;;;;;;0.70;0.40;;;10.30;99.90;;;;;;5091092;28;20877;-58
2022/12/29 07:45:17;;;;;;;0.80;0.40;;;10.30;99.90;;;;;;5089870;28;20458;-58
2022/12/29 07:47:44;;;;;;;0.80;0.40;;;10.30;99.90;;;;;;5088747;28;20778;-59
2022/12/29 07:50:11;;;;;;;0.60;0.30;;;10.20;99.90;;;;;;5089913;28;20440;-58
2022/12/29 07:52:40;;;;;;;0.60;0.30;;;10.20;99.90;;;;;;5092375;28;20465;-58
2022/12/29 07:55:08;;;;;;;0.88;0.35;;;10.20;99.90;;;;;;5091904;28;20738;-58
2022/12/29 07:57:35;;;;;;;1.30;0.40;;;10.30;99.90;;;;;;5090665;28;20457;-58
2022/12/29 08:00:03;;;;;;;2.38;0.40;;;10.30;99.90;;;;;;5091421;28;20512;-59
2022/12/29 08:02:31;;;;;;;0.60;0.30;;;10.30;99.90;;;;;;5089529;28;20414;-59
2022/12/29 08:04:58;;;;;;;0.70;0.40;;;10.30;99.90;;;;;;5089958;28;20799;-59
2022/12/29 08:07:25;;;;;;;0.82;0.40;;;10.30;99.90;;;;;;5090609;28;20520;-59
2022/12/29 08:09:54;;;;;;;1.50;0.40;;;10.30;99.90;;;;;;5090397;28;20514;-59
2022/12/29 08:12:21;;;;;;;1.00;0.40;;;10.30;99.90;;;;;;5090435;28;21007;-59
2022/12/29 08:14:48;;;;;;;0.80;0.40;;;10.30;99.90;;;;;;5091549;28;20422;-59
2022/12/29 08:17:15;;;;;;;0.90;0.40;;;10.30;99.90;;;;;;5095264;28;20521;-59
2022/12/29 08:19:43;;;;;;;0.80;0.40;;;10.30;99.90;;;;;;5095092;28;20497;-60
2022/12/29 08:22:10;;;;;;;0.80;0.40;;;10.40;99.90;;;;;;5095226;28;20409;-59
2022/12/29 08:24:37;;;;;;;1.30;0.40;;;10.50;99.90;;;;;;5095717;28;20508;-58
2022/12/29 08:27:06;;;;;;;2.00;0.80;;;10.50;99.90;;;;;;5095465;28;20802;-58
2022/12/29 08:29:34;;;;;;;1.38;0.50;;;10.50;99.90;;;;;;5095182;28;20505;-57
2022/12/29 08:32:01;;;;;;;0.70;0.40;;;10.60;99.90;;;;;;5094614;28;20487;-59
2022/12/29 08:34:32;;;;;;;0.70;0.40;;;10.60;99.90;;;;;;5088340;28;20841;-57
2022/12/29 08:36:59;;;;;;;1.20;0.50;;;10.60;99.90;;;;;;5093765;28;20517;-55
2022/12/29 08:39:27;;;;;;;3.20;0.60;;;10.70;99.90;;;;;;5096690;28;20512;-59
2022/12/29 08:41:54;;;;;;;0.80;0.50;;;10.70;99.90;;;;;;5095080;28;20733;-57
2022/12/29 08:44:23;;;;;;;1.42;0.50;;;10.70;99.90;;;;;;5092919;28;20820;-57
2022/12/29 08:46:50;;;;;;;0.60;0.33;;;10.60;99.90;;;;;;5091595;28;20521;-57
2022/12/29 08:49:18;;;;;;;1.52;0.40;;;10.60;99.90;;;;;;5094041;28;20501;-57
2022/12/29 08:51:45;;;;;;;0.70;0.40;;;10.60;99.90;;;;;;5088450;28;20529;-58
2022/12/29 08:54:12;;;;;;;0.80;0.50;;;10.70;99.90;;;;;;5093251;28;20461;-57
2022/12/29 08:56:39;;;;;;;0.60;0.38;;;10.80;99.90;;;;;;5094843;28;20426;-58
2022/12/29 08:59:07;;;;;;;0.80;0.30;;;10.80;99.90;;;;;;5113734;28;20966;-58
2022/12/29 09:01:40;;;;;;;0.40;0.30;;;10.90;99.90;;;;;;5112693;28;20511;-58
2022/12/29 09:04:07;;;;;;;0.70;0.40;;;11.00;99.90;;;;;;5112199;28;20422;-58
2022/12/29 09:06:34;;;;;;;0.93;0.30;;;11.00;99.90;;;;;;5114732;28;20829;-58
2022/12/29 09:09:02;;;;;;;0.63;0.40;;;11.00;99.90;;;;;;5114593;28;20467;-58
2022/12/29 09:11:29;;;;;;;0.60;0.30;;;11.00;99.90;;;;;;5112727;28;20817;-58
2022/12/29 09:13:57;;;;;;;0.70;0.40;;;11.10;99.90;;;;;;5112574;28;20466;-55
2022/12/29 09:16:26;;;;;;;0.90;0.30;;;11.20;99.90;;;;;;5110299;28;20527;-58
2022/12/29 09:18:55;;;;;;;0.80;0.50;;;11.30;99.90;;;;;;5110864;28;20416;-58
2022/12/29 09:21:22;;;;;;;1.00;0.40;;;11.40;99.90;;;;;;5112317;28;20428;-58
2022/12/29 09:23:49;;;;;;;1.10;0.40;;;11.50;99.90;;;;;;5111671;28;20499;-58
2022/12/29 09:26:17;;;;;;;0.80;0.40;;;11.60;99.90;;;;;;5101471;28;20801;-58
2022/12/29 09:28:45;;;;;;;0.88;0.40;;;11.70;99.90;;;;;;5091956;28;20750;-58
2022/12/29 09:31:12;;;;;;;0.70;0.40;;;11.70;99.90;;;;;;5091774;28;20434;-58
2022/12/29 09:33:40;;;;;;;1.02;0.30;;;11.80;99.90;;;;;;5093171;28;20517;-56
2022/12/29 09:36:10;;;;;;;0.60;0.40;;;11.90;99.90;;;;;;5093607;28;20417;-58
2022/12/29 09:38:37;;;;;;;1.00;0.40;;;12.00;99.90;;;;;;5092295;28;20418;-58
2022/12/29 09:41:14;;;;;;;0.60;0.30;;;12.00;99.90;;;;;;5092783;28;21088;-58
2022/12/29 09:44:06;;;;;;;1.00;0.30;;;12.00;99.90;;;;;;5091944;28;20412;-58
2022/12/29 09:46:39;;;;;;;1.20;0.30;;;12.10;99.90;;;;;;5083550;28;20464;-58
2022/12/29 09:49:19;;;;;;;0.68;0.30;;;12.20;99.90;;;;;;5091785;28;20425;-58
2022/12/29 09:51:52;;;;;;;1.50;0.40;;;12.20;99.90;;;;;;5091812;28;20774;-57
2022/12/29 09:54:40;;;;;;;0.70;0.30;;;12.20;99.90;;;;;;5092490;28;20504;-58
2022/12/29 09:57:17;;;;;;;0.60;0.30;;;12.30;99.90;;;;;;5090708;28;20501;-58
2022/12/29 09:59:47;;;;;;;0.63;0.30;;;12.40;99.90;;;;;;5093574;28;20425;-58
2022/12/29 10:02:28;;;;;;;1.30;0.40;;;12.50;99.90;;;;;;5093728;28;20410;-58
2022/12/29 10:04:55;;;;;;;0.80;0.30;;;12.50;99.90;;;;;;5090960;28;20437;-58
2022/12/29 10:07:35;;;;;;;0.90;0.40;;;12.50;99.90;;;;;;5091007;28;20797;-57
2022/12/29 10:10:14;;;;;;;0.60;0.30;;;12.50;99.90;;;;;;5093272;28;20505;-61
2022/12/29 10:12:59;;;;;;;1.17;0.30;;;12.50;99.90;;;;;;5091804;28;20466;-61
2022/12/29 10:15:56;;;;;;;0.60;0.30;;;12.60;99.90;;;;;;5086206;28;20697;-61
2022/12/29 10:18:42;;;;;;;0.80;0.30;;;12.60;99.90;;;;;;5068980;28;20442;-60
2022/12/29 10:21:18;;;;;;;1.00;0.30;;;12.70;99.90;;;;;;5088295;28;20446;-59
2022/12/29 10:23:51;;;;;;;0.77;0.40;;;12.80;99.90;;;;;;5091464;28;20497;-59
2022/12/29 10:26:21;;;;;;;1.10;0.30;;;12.90;99.90;;;;;;5087084;28;20556;-60
2022/12/29 10:28:52;;;;;;;1.10;0.30;;;13.00;99.90;;;;;;5088396;28;21050;-60
2022/12/29 10:31:23;;;;;;;0.50;0.30;;;13.10;99.90;;;;;;5076570;28;20429;-60
2022/12/29 10:33:55;;;;;;;0.70;0.30;;;13.10;99.90;;;;;;5093076;28;20516;-61
2022/12/29 10:36:28;;;;;;;0.73;0.30;;;13.20;99.90;;;;;;5093766;28;20598;-60
2022/12/29 10:39:07;;;;;;;0.70;0.40;;;13.20;99.90;;;;;;5093721;28;20417;-60
2022/12/29 10:41:41;;;;;;;0.80;0.30;;;13.30;99.90;;;;;;5093336;28;20677;-60
2022/12/29 10:44:14;;;;;;;1.20;0.30;;;13.30;99.90;;;;;;5093860;28;20511;-60
2022/12/29 10:46:43;;;;;;;0.90;0.40;;;13.40;99.90;;;;;;5093329;28;20506;-60
2022/12/29 10:49:17;;;;;;;1.00;0.30;;;13.50;99.90;;;;;;5091171;28;20505;-60
2022/12/29 10:51:47;;;;;;;1.00;0.40;;;13.50;99.90;;;;;;5091734;28;20835;-61
2022/12/29 10:54:21;;;;;;;0.88;0.40;;;13.60;99.90;;;;;;5089389;28;20428;-61
2022/12/29 10:56:52;;;;;;;1.60;0.40;;;13.60;99.90;;;;;;5082067;28;20909;-60
2022/12/29 10:59:23;;;;;;;1.00;0.40;;;13.70;99.90;;;;;;5090216;28;20442;-61
2022/12/29 11:01:59;;;;;;;1.20;0.40;;;13.90;99.90;;;;;;5092129;28;20426;-60
2022/12/29 11:04:43;;;;;;;0.90;0.40;;;14.00;99.90;;;;;;5090758;28;20437;-60
2022/12/29 11:07:11;;;;;;;0.60;0.30;;;14.00;99.90;;;;;;5088367;28;20508;-61
2022/12/29 11:09:42;;;;;;;1.23;0.45;;;14.00;99.90;;;;;;5089028;28;20907;-60
2022/12/29 11:12:33;;;;;;;0.80;0.30;;;13.90;99.90;;;;;;5090853;28;20898;-61
2022/12/29 11:15:13;;;;;;;0.63;0.32;;;13.80;99.90;;;;;;5086613;28;20430;-62
2022/12/29 11:17:49;;;;;;;0.60;0.30;;;13.80;99.90;;;;;;5088026;28;20509;-61
2022/12/29 11:20:38;;;;;;;1.30;0.30;;;13.70;99.90;;;;;;5091537;28;20512;-60
2022/12/29 11:23:21;;;;;;;0.50;0.30;;;13.80;99.90;;;;;;5091601;28;20439;-62
2022/12/29 11:26:11;;;;;;;1.42;0.30;;;13.80;99.90;;;;;;5090466;28;20429;-61
2022/12/29 11:28:39;;;;;;;0.60;0.30;;;13.70;99.90;;;;;;5091297;28;20409;-61
2022/12/29 11:31:08;;;;;;;1.00;0.30;;;13.70;99.90;;;;;;5091962;28;20813;-61
2022/12/29 11:33:37;;;;;;;0.70;0.30;;;13.60;99.90;;;;;;5090761;28;20807;-61
2022/12/29 11:36:09;;;;;;;0.60;0.50;;;13.60;99.90;;;;;;5091447;28;20513;-61
2022/12/29 11:38:39;;;;;;;0.52;0.30;;;13.60;99.90;;;;;;5087303;28;20764;-61
2022/12/29 11:41:11;;;;;;;0.95;0.30;;;13.50;99.90;;;;;;5089247;28;20528;-61
2022/12/29 11:43:41;;;;;;;0.50;0.30;;;13.50;99.90;;;;;;5089768;28;20521;-61
2022/12/29 11:46:17;;;;;;;0.70;0.30;;;13.30;99.90;;;;;;5088482;28;20512;-62
2022/12/29 11:48:45;;;;;;;0.98;0.40;;;13.20;99.90;;;;;;5090751;28;20504;-61
2022/12/29 11:51:14;;;;;;;1.30;0.40;;;13.10;99.90;;;;;;5091242;28;20540;-61
2022/12/29 11:53:46;;;;;;;1.10;0.30;;;13.10;99.90;;;;;;5095324;28;20436;-61
2022/12/29 11:56:17;;;;;;;1.40;0.30;;;13.10;99.90;;;;;;5095889;28;20433;-62
2022/12/29 11:58:45;;;;;;;1.05;0.40;;;12.90;99.90;;;;;;5095516;28;20495;-61
2022/12/29 12:01:18;;;;;;;1.67;0.40;;;12.90;99.90;;;;;;5095151;28;20928;-60
2022/12/29 12:03:49;;;;;;;0.50;0.40;;;12.90;99.90;;;;;;5095614;28;20829;-60
2022/12/29 12:06:20;;;;;;;0.90;0.40;;;12.90;99.90;;;;;;5096140;28;20430;-60
2022/12/29 12:08:54;;;;;;;1.00;0.30;;;12.90;99.90;;;;;;5096817;28;20821;-60
2022/12/29 12:11:33;;;;;;;0.70;0.30;;;12.80;99.90;;;;;;5093211;28;20524;-60
2022/12/29 12:14:03;;;;;;;0.70;0.38;;;12.70;99.90;;;;;;5096506;28;20441;-61
2022/12/29 12:16:38;;;;;;;0.70;0.40;;;12.60;99.90;;;;;;5096469;28;20532;-61
2022/12/29 12:19:20;;;;;;;0.60;0.30;;;12.60;99.90;;;;;;5095562;28;20772;-60
2022/12/29 12:21:53;;;;;;;1.10;0.40;;;12.60;99.90;;;;;;5095791;28;20457;-61
2022/12/29 12:24:35;;;;;;;0.95;0.50;;;12.60;99.90;;;;;;5088728;28;20520;-61
2022/12/29 12:27:14;;;;;;;1.95;0.63;;;12.60;99.90;;;;;;5086436;28;20421;-61
2022/12/29 12:29:48;;;;;;;0.80;0.40;;;12.60;99.90;;;;;;5094915;28;20453;-59
2022/12/29 12:32:20;;;;;;;0.70;0.40;;;12.60;99.90;;;;;;5095614;28;20807;-61
2022/12/29 12:34:49;;;;;;;0.50;0.30;;;12.80;99.90;;;;;;5096166;28;20512;-60
2022/12/29 12:37:45;;;;;;;0.90;0.40;;;12.90;99.90;;;;;;5094871;28;20622;-61
2022/12/29 12:40:35;;;;;;;0.50;0.30;;;12.90;99.90;;;;;;5091605;28;20426;-62
2022/12/29 12:43:28;;;;;;;1.35;0.30;;;12.80;99.90;;;;;;5095413;28;20713;-61
2022/12/29 12:46:04;;;;;;;1.63;0.40;;;12.70;99.90;;;;;;5089461;28;20433;-61
2022/12/29 12:48:57;;;;;;;0.50;0.30;;;12.60;99.90;;;;;;5094223;28;20505;-61
2022/12/29 12:51:34;;;;;;;1.60;0.40;;;12.60;99.90;;;;;;5092980;28;20429;-62
2022/12/29 12:54:19;;;;;;;1.03;0.30;;;12.50;99.90;;;;;;5092049;28;20571;-61
2022/12/29 12:57:04;;;;;;;0.90;0.35;;;12.50;99.90;;;;;;5091813;28;20429;-61
2022/12/29 12:59:41;;;;;;;0.57;0.40;;;12.40;99.90;;;;;;5093641;28;20513;-62
2022/12/29 13:02:22;;;;;;;1.45;0.40;;;12.50;99.90;;;;;;5092906;28;20497;-61
2022/12/29 13:05:21;;;;;;;0.60;0.30;;;12.50;99.90;;;;;;5091480;28;20624;-61
2022/12/29 13:08:02;;;;;;;0.73;0.40;;;12.50;99.90;;;;;;5093672;28;20500;-62
2022/12/29 13:10:42;;;;;;;0.50;0.30;;;12.60;99.90;;;;;;5094568;28;20433;-61
2022/12/29 13:13:47;;;;;;;1.20;0.40;;;12.60;99.90;;;;;;5094156;28;20512;-62
2022/12/29 13:16:27;;;;;;;1.00;0.40;;;12.60;99.90;;;;;;5080158;28;20639;-61
2022/12/29 13:18:59;;;;;;;1.20;0.40;;;12.70;99.90;;;;;;5089545;28;20518;-61
2022/12/29 13:21:38;;;;;;;0.80;0.40;;;12.70;99.90;;;;;;5094216;28;20816;-62
2022/12/29 13:24:14;;;;;;;0.80;0.40;;;12.80;99.90;;;;;;5092491;28;20884;-61
2022/12/29 13:26:47;;;;;;;0.50;0.30;;;12.80;99.90;;;;;;5093528;28;20525;-61
2022/12/29 13:29:19;;;;;;;0.50;0.30;;;12.70;99.90;;;;;;5092638;28;20457;-60
2022/12/29 13:31:55;;;;;;;0.60;0.40;;;12.70;99.90;;;;;;5090829;28;20521;-60
2022/12/29 13:34:32;;;;;;;1.25;0.30;;;12.70;99.90;;;;;;5090548;28;20513;-60
2022/12/29 13:37:02;;;;;;;0.60;0.30;;;12.60;99.90;;;;;;5089959;28;20940;-61
2022/12/29 13:39:35;;;;;;;0.60;0.30;;;12.60;99.90;;;;;;5093837;28;20438;-60
2022/12/29 13:42:05;;;;;;;0.90;0.30;;;12.50;99.90;;;;;;5092780;28;20445;-61
2022/12/29 13:44:35;;;;;;;0.60;0.32;;;12.50;99.90;;;;;;5093449;28;20706;-61
2022/12/29 13:47:14;;;;;;;0.93;0.40;;;12.50;99.90;;;;;;5094388;28;20517;-61
2022/12/29 13:49:42;;;;;;;1.02;0.40;;;12.50;99.90;;;;;;5094248;28;20457;-61